KHSV/HSV METAR and TAF weather

Enter ICAO airport designator
Station Type Date Time Source
KHSV METAR 2022/01/29 09:53 UTC NOAA

KHSV 290953Z 34013KT 10SM CLR M04/M11 A3027 RMK AO2 SLP254 T10441111


Station Type Date Time Source
KHSV Decoded METAR 2022/01/29 09:53 UTC NOAA

HUNTSVILLE INTERNATIONAL JONES FIELD, AL, United States (KHSV) 34-39N 086-47W 191M
Jan 29, 2022 - 04:53 AM EST / 2022.01.29 0953 UTC
Wind: from the NNW (340 degrees) at 15 MPH (13 KT):0
Visibility: 10 mile(s):0
Sky conditions: clear
Temperature: 24.1 F (-4.4 C)
Windchill: 12 F (-11 C):1
Dew Point: 12.0 F (-11.1 C)
Relative Humidity: 59%
Pressure (altimeter): 30.27 in. Hg (1025 hPa)
ob: KHSV 290953Z 34013KT 10SM CLR M04/M11 A3027 RMK AO2 SLP254 T10441111
cycle: 10

Station Type Date Time Source
KHSV TAF 2022/01/29 06:22 UTC NOAA

TAF KHSV 290520Z 2906/3006 33015G25KT P6SM SCT025 BKN040
FM291000 33010KT P6SM SKC
FM291800 31005KT P6SM SKC

Example: see airport list